createdAt,value
2022-11-21T00:01:49.086Z,97309.41
2022-11-21T00:03:52.533Z,97309.31
2022-11-21T00:05:55.616Z,97305.56
2022-11-21T00:07:59.132Z,97309.72
2022-11-21T00:10:02.134Z,97299.56
2022-11-21T00:12:05.526Z,97305.56
2022-11-21T00:14:08.660Z,97301.75
2022-11-21T00:16:15.086Z,97283.81
2022-11-21T00:18:18.110Z,97288.88
2022-11-21T00:20:22.517Z,97293.97
2022-11-21T00:22:25.517Z,97289.59
2022-11-21T00:24:28.724Z,97281.72
2022-11-21T00:26:31.919Z,97284.03
2022-11-21T00:28:35.211Z,97278.09
2022-11-21T00:30:38.229Z,97283.91
2022-11-21T00:32:42.686Z,97281.72
2022-11-21T00:34:45.669Z,97273.44
2022-11-21T00:36:48.713Z,97266.59
2022-11-21T00:38:52.229Z,97267.03
2022-11-21T00:40:55.174Z,97259.56
2022-11-21T00:42:58.382Z,97256.41
2022-11-21T00:45:01.373Z,97252.69
2022-11-21T00:47:04.515Z,97254.84
2022-11-21T00:49:08.874Z,97250.81
2022-11-21T00:51:11.834Z,97254.31
2022-11-21T00:53:14.789Z,97237.34
2022-11-21T00:55:17.882Z,97243.44
2022-11-21T00:57:20.860Z,97245.13
2022-11-21T00:59:23.872Z,97245.03
2022-11-21T01:01:26.905Z,97240.66
2022-11-21T01:03:29.984Z,97246.66
2022-11-21T01:05:34.583Z,97235.59
2022-11-21T01:07:37.648Z,97233.81
2022-11-21T01:09:40.753Z,97239.94
2022-11-21T01:11:43.709Z,97234.44
2022-11-21T01:13:47.301Z,97232.28
2022-11-21T01:15:50.403Z,97227.28
2022-11-21T01:17:53.433Z,97234.88
2022-11-21T01:19:56.399Z,97244.28
2022-11-21T01:22:00.786Z,97231.31
2022-11-21T01:24:03.899Z,97239.59
2022-11-21T01:26:08.792Z,97239.41
2022-11-21T01:28:11.799Z,97253.22
2022-11-21T01:30:15.693Z,97243.47
2022-11-21T01:32:18.630Z,97252.06
2022-11-21T01:34:21.647Z,97246.06
2022-11-21T01:36:26.078Z,97245.84
2022-11-21T01:38:30.498Z,97246.34
2022-11-21T01:40:39.151Z,97245.03
2022-11-21T01:42:54.792Z,97238.81
2022-11-21T01:44:57.782Z,97239.84
2022-11-21T01:47:00.774Z,97233.00
2022-11-21T01:49:06.214Z,97230.72
2022-11-21T01:51:12.140Z,97220.75
2022-11-21T01:53:15.313Z,97225.22
2022-11-21T01:55:20.054Z,97226.03
2022-11-21T01:57:25.121Z,97232.06
2022-11-21T01:59:30.586Z,97231.44
2022-11-21T02:01:35.787Z,97235.69
2022-11-21T02:03:39.603Z,97238.38
2022-11-21T02:05:42.648Z,97241.38
2022-11-21T02:07:47.450Z,97245.44
2022-11-21T02:09:53.609Z,97232.03
2022-11-21T02:12:01.837Z,97227.69
2022-11-21T02:14:04.830Z,97230.69
2022-11-21T02:16:08.426Z,97229.94
2022-11-21T02:18:11.530Z,97233.47
2022-11-21T02:20:16.402Z,97231.09
2022-11-21T02:22:26.995Z,97225.47
2022-11-21T02:24:34.965Z,97222.25
2022-11-21T02:26:39.471Z,97225.75
2022-11-21T02:28:45.033Z,97220.16
2022-11-21T02:30:48.080Z,97226.59
2022-11-21T02:32:51.097Z,97213.84
2022-11-21T02:34:54.055Z,97227.69
2022-11-21T02:36:57.375Z,97226.50
2022-11-21T02:39:00.395Z,97221.50
2022-11-21T02:41:08.786Z,97215.28
2022-11-21T02:43:16.108Z,97220.25
2022-11-21T02:45:22.629Z,97220.81
2022-11-21T02:47:25.735Z,97224.03
2022-11-21T02:49:36.039Z,97224.44
2022-11-21T02:51:39.012Z,97221.34
2022-11-21T02:53:42.074Z,97217.53
2022-11-21T02:55:45.842Z,97213.69
2022-11-21T02:57:48.896Z,97215.88
2022-11-21T02:59:53.454Z,97216.19
2022-11-21T03:01:59.665Z,97202.72
2022-11-21T03:04:02.725Z,97216.22
2022-11-21T03:06:05.837Z,97213.53
2022-11-21T03:08:08.924Z,97208.66
2022-11-21T03:10:12.394Z,97207.28
2022-11-21T03:12:15.296Z,97206.88
2022-11-21T03:14:18.255Z,97204.38
2022-11-21T03:16:22.917Z,97198.00
2022-11-21T03:18:25.980Z,97194.44
2022-11-21T03:20:29.220Z,97194.44
2022-11-21T03:22:32.291Z,97191.25
2022-11-21T03:24:35.365Z,97194.03
2022-11-21T03:26:38.476Z,97187.38
2022-11-21T03:28:42.811Z,97189.38
2022-11-21T03:30:45.782Z,97191.03
2022-11-21T03:32:50.386Z,97189.47
2022-11-21T03:34:53.582Z,97193.94
2022-11-21T03:36:56.544Z,97194.84
2022-11-21T03:38:59.607Z,97184.50
2022-11-21T03:41:05.441Z,97186.28
2022-11-21T03:43:08.578Z,97184.91
2022-11-21T03:45:11.999Z,97188.97
2022-11-21T03:47:14.956Z,97191.56
2022-11-21T03:49:19.334Z,97183.38
2022-11-21T03:51:22.697Z,97181.19
2022-11-21T03:53:25.654Z,97183.69
2022-11-21T03:55:28.730Z,97186.66
2022-11-21T03:57:31.741Z,97185.53
2022-11-21T03:59:34.774Z,97191.13
2022-11-21T04:01:37.770Z,97184.81
2022-11-21T04:03:41.486Z,97193.19
2022-11-21T04:05:46.752Z,97191.25
2022-11-21T04:07:49.727Z,97187.59
2022-11-21T04:09:52.687Z,97187.97
2022-11-21T04:11:55.665Z,97182.81
2022-11-21T04:13:58.632Z,97192.25
2022-11-21T04:16:01.671Z,97190.25
2022-11-21T04:18:04.998Z,97181.44
2022-11-21T04:20:09.112Z,97185.50
2022-11-21T04:22:13.451Z,97184.34
2022-11-21T04:24:16.487Z,97191.78
2022-11-21T04:26:19.505Z,97185.69
2022-11-21T04:28:22.917Z,97185.47
2022-11-21T04:30:25.947Z,97174.16
2022-11-21T04:32:28.941Z,97169.59
2022-11-21T04:34:31.901Z,97173.59
2022-11-21T04:36:34.974Z,97163.47
2022-11-21T04:38:39.502Z,97162.63
2022-11-21T04:40:44.214Z,97161.59
2022-11-21T04:42:48.483Z,97158.28
2022-11-21T04:44:51.530Z,97157.06
2022-11-21T04:46:54.518Z,97161.31
2022-11-21T04:48:57.496Z,97169.69
2022-11-21T04:51:03.122Z,97160.13
2022-11-21T04:53:06.157Z,97163.28
2022-11-21T04:55:11.221Z,97153.09
2022-11-21T04:57:14.403Z,97166.41
2022-11-21T04:59:17.386Z,97167.25
2022-11-21T05:01:20.584Z,97165.25
2022-11-21T05:03:23.574Z,97167.84
2022-11-21T05:05:26.618Z,97169.72
2022-11-21T05:07:29.618Z,97170.97
2022-11-21T05:09:32.632Z,97161.47
2022-11-21T05:11:54.713Z,97171.44
2022-11-21T05:13:57.711Z,97168.53
2022-11-21T05:16:00.658Z,97164.59
2022-11-21T05:18:03.607Z,97169.38
2022-11-21T05:20:08.042Z,97171.03
2022-11-21T05:22:11.066Z,97169.28
2022-11-21T05:24:14.002Z,97166.69
2022-11-21T05:26:16.993Z,97186.34
2022-11-21T05:28:21.446Z,97183.44
2022-11-21T05:30:24.421Z,97187.09
2022-11-21T05:32:27.403Z,97182.13
2022-11-21T05:34:30.804Z,97183.44
2022-11-21T05:36:34.088Z,97172.06
2022-11-21T05:38:37.194Z,97185.53
2022-11-21T05:40:40.278Z,97191.97
2022-11-21T05:43:01.097Z,97202.72
2022-11-21T05:45:05.903Z,97211.00
2022-11-21T05:47:09.017Z,97215.66
2022-11-21T05:49:12.270Z,97223.22
2022-11-21T05:51:16.049Z,97196.25
2022-11-21T05:53:19.681Z,97204.66
2022-11-21T05:55:22.721Z,97187.34
2022-11-21T05:57:25.850Z,97187.25
2022-11-21T05:59:28.874Z,97197.63
2022-11-21T06:01:47.143Z,97203.50
2022-11-21T06:03:50.153Z,97210.97
2022-11-21T06:05:53.099Z,97203.19
2022-11-21T06:07:56.129Z,97215.72
2022-11-21T06:09:59.105Z,97191.31
2022-11-21T06:12:02.322Z,97195.69
2022-11-21T06:14:05.284Z,97202.44
2022-11-21T06:16:09.740Z,97188.63
2022-11-21T06:18:14.165Z,97189.47
2022-11-21T06:20:17.274Z,97191.09
2022-11-21T06:22:20.213Z,97191.84
2022-11-21T06:24:23.285Z,97195.97
2022-11-21T06:26:27.586Z,97191.41
2022-11-21T06:28:33.539Z,97193.56
2022-11-21T06:30:36.883Z,97190.75
2022-11-21T06:32:39.911Z,97195.97
2022-11-21T06:34:44.318Z,97203.84
2022-11-21T06:36:47.455Z,97198.03
2022-11-21T06:38:50.696Z,97199.91
2022-11-21T06:40:53.753Z,97199.09
2022-11-21T06:42:57.697Z,97206.78
2022-11-21T06:45:00.834Z,97205.47
2022-11-21T06:47:03.832Z,97211.31
2022-11-21T06:49:06.988Z,97214.50
2022-11-21T06:51:14.308Z,97215.97
2022-11-21T06:53:17.364Z,97215.69
2022-11-21T06:55:21.378Z,97216.34
2022-11-21T06:57:24.349Z,97226.38
2022-11-21T06:59:27.460Z,97219.31
2022-11-21T07:01:30.553Z,97225.75
2022-11-21T07:03:33.661Z,97220.50
2022-11-21T07:05:36.856Z,97222.50
2022-11-21T07:07:41.521Z,97212.66
2022-11-21T07:09:47.445Z,97213.41
2022-11-21T07:11:50.796Z,97218.94
2022-11-21T07:13:53.011Z,97224.34
2022-11-21T07:15:57.718Z,97218.31
2022-11-21T07:18:00.768Z,97225.03
2022-11-21T07:20:03.948Z,97228.69
2022-11-21T07:22:08.379Z,97226.09
2022-11-21T07:24:13.430Z,97224.34
2022-11-21T07:26:16.419Z,97219.97
2022-11-21T07:28:19.427Z,97221.31
2022-11-21T07:30:22.394Z,97215.69
2022-11-21T07:32:26.127Z,97212.56
2022-11-21T07:34:29.291Z,97209.75
2022-11-21T07:36:32.779Z,97205.91
2022-11-21T07:38:35.757Z,97209.59
2022-11-21T07:40:40.092Z,97219.41
2022-11-21T07:42:43.101Z,97214.94
2022-11-21T07:44:46.483Z,97215.91
2022-11-21T07:46:49.501Z,97223.56
2022-11-21T07:48:52.468Z,97221.47
2022-11-21T07:50:55.543Z,97228.22
2022-11-21T07:52:59.301Z,97222.50
2022-11-21T07:55:02.591Z,97228.88
2022-11-21T07:57:07.140Z,97225.31
2022-11-21T07:59:10.185Z,97226.28
2022-11-21T08:01:13.372Z,97222.00
2022-11-21T08:03:16.560Z,97225.31
2022-11-21T08:05:19.900Z,97226.78
2022-11-21T08:07:23.979Z,97229.84
2022-11-21T08:09:29.880Z,97228.00
2022-11-21T08:11:33.054Z,97232.56
2022-11-21T08:13:37.529Z,97229.03
2022-11-21T08:15:40.570Z,97222.91
2022-11-21T08:17:44.261Z,97225.06
2022-11-21T08:19:47.261Z,97218.22
2022-11-21T08:21:50.394Z,97226.00
2022-11-21T08:23:53.413Z,97222.38
2022-11-21T08:25:56.452Z,97223.06
2022-11-21T08:27:59.927Z,97234.19
2022-11-21T08:30:05.998Z,97226.72
2022-11-21T08:32:09.064Z,97213.56
2022-11-21T08:34:14.613Z,97215.16
2022-11-21T08:36:17.817Z,97216.81
2022-11-21T08:38:20.957Z,97214.34
2022-11-21T08:40:24.120Z,97216.34
2022-11-21T08:42:26.161Z,97225.31
2022-11-21T08:44:30.033Z,97220.75
2022-11-21T08:46:37.464Z,97223.94
2022-11-21T08:48:40.504Z,97218.38
2022-11-21T08:50:43.635Z,97217.16
2022-11-21T08:52:46.714Z,97213.63
2022-11-21T08:54:50.112Z,97214.44
2022-11-21T08:56:53.325Z,97212.56
2022-11-21T08:58:57.092Z,97210.50
2022-11-21T09:01:00.598Z,97210.38
2022-11-21T09:03:06.685Z,97213.56
2022-11-21T09:05:10.633Z,97207.34
2022-11-21T09:07:13.870Z,97208.88
2022-11-21T09:09:20.752Z,97202.38
2022-11-21T09:11:28.092Z,97212.88
2022-11-21T09:13:31.150Z,97210.25
2022-11-21T09:15:51.498Z,97211.09
2022-11-21T09:18:06.632Z,97212.13
2022-11-21T09:20:11.556Z,97203.28
2022-11-21T09:22:14.774Z,97200.16
2022-11-21T09:24:18.016Z,97202.75
2022-11-21T09:26:21.009Z,97199.94
2022-11-21T09:28:24.750Z,97194.63
2022-11-21T09:30:27.962Z,97196.59
2022-11-21T09:32:31.834Z,97193.91
2022-11-21T09:34:34.919Z,97196.75
2022-11-21T09:36:39.337Z,97209.06
2022-11-21T09:38:42.475Z,97200.47
2022-11-21T09:40:47.653Z,97207.25
2022-11-21T09:43:14.906Z,97202.28
2022-11-21T09:45:20.950Z,97200.44
2022-11-21T09:47:26.175Z,97204.44
2022-11-21T09:49:30.144Z,97208.00
2022-11-21T09:51:33.497Z,97202.19
2022-11-21T09:53:40.066Z,97206.44
2022-11-21T09:55:47.111Z,97198.28
2022-11-21T09:57:51.157Z,97194.59
2022-11-21T09:59:55.082Z,97200.50
2022-11-21T10:01:58.538Z,97200.66
2022-11-21T10:04:03.153Z,97194.03
2022-11-21T10:06:15.429Z,97190.25
2022-11-21T10:08:29.203Z,97183.28
2022-11-21T10:10:43.707Z,97172.53
2022-11-21T10:13:07.980Z,97165.59
2022-11-21T10:15:26.685Z,97156.22
2022-11-21T10:17:35.420Z,97159.31
2022-11-21T10:19:53.212Z,97153.88
2022-11-21T10:22:19.740Z,97147.72
2022-11-21T10:24:40.611Z,97152.47
2022-11-21T10:26:51.506Z,97147.72
2022-11-21T10:28:59.615Z,97145.13
2022-11-21T10:31:04.548Z,97142.75
2022-11-21T10:33:14.235Z,97131.41
2022-11-21T10:35:20.488Z,97132.81
2022-11-21T10:37:32.587Z,97123.59
2022-11-21T10:39:39.302Z,97129.97
2022-11-21T10:41:51.305Z,97113.38
2022-11-21T10:44:17.720Z,97120.94
2022-11-21T10:46:20.796Z,97118.19
2022-11-21T10:48:23.862Z,97107.59
2022-11-21T10:50:35.315Z,97118.09
2022-11-21T10:52:45.361Z,97118.09
2022-11-21T10:55:04.980Z,97114.38
2022-11-21T10:57:14.545Z,97100.06
2022-11-21T10:59:30.059Z,97095.47
2022-11-21T11:01:35.768Z,97087.59
2022-11-21T11:03:38.748Z,97096.16
2022-11-21T11:05:43.841Z,97092.63
2022-11-21T11:08:01.463Z,97085.25
2022-11-21T11:10:16.475Z,97078.41
2022-11-21T11:12:48.799Z,97072.84
2022-11-21T11:14:54.478Z,97076.91
2022-11-21T11:16:57.594Z,97077.97
2022-11-21T11:19:01.827Z,97068.97
2022-11-21T11:21:15.000Z,97068.78
2022-11-21T11:23:28.532Z,97073.31
2022-11-21T11:25:36.868Z,97060.41
2022-11-21T11:27:41.312Z,97050.38
2022-11-21T11:29:52.992Z,97058.44
2022-11-21T11:31:58.226Z,97057.75
2022-11-21T11:34:01.221Z,97048.75
2022-11-21T11:36:15.356Z,97044.66
2022-11-21T11:38:18.925Z,97040.56
2022-11-21T11:40:27.220Z,97041.09
2022-11-21T11:43:10.970Z,97039.94
2022-11-21T11:45:35.625Z,97029.09
2022-11-21T11:47:50.472Z,96997.44
2022-11-21T11:50:13.496Z,96995.28
2022-11-21T11:52:17.034Z,96998.53
2022-11-21T11:54:22.134Z,97000.06
2022-11-21T11:56:28.151Z,97000.38
2022-11-21T11:58:38.108Z,97007.88
2022-11-21T12:00:43.449Z,97009.53
2022-11-21T12:02:51.694Z,97009.41
2022-11-21T12:04:58.582Z,97001.72
2022-11-21T12:09:39.161Z,96996.91
2022-11-21T12:12:08.913Z,96985.25
2022-11-21T12:15:09.081Z,96984.50
2022-11-21T12:17:15.259Z,96980.72
2022-11-21T12:19:18.788Z,96971.13
2022-11-21T12:21:23.466Z,96958.72
2022-11-21T12:23:29.305Z,96958.84
2022-11-21T12:25:34.995Z,96947.44
2022-11-21T12:27:38.382Z,96950.91
2022-11-21T12:29:56.736Z,96944.84
2022-11-21T12:32:11.143Z,96946.25
2022-11-21T12:34:27.917Z,96938.19
2022-11-21T12:36:36.251Z,96933.41
2022-11-21T12:39:10.211Z,96932.09
2022-11-21T12:41:34.236Z,96918.69
2022-11-21T12:43:42.604Z,96922.22
2022-11-21T12:45:51.265Z,96921.16
2022-11-21T12:48:35.747Z,96907.88
2022-11-21T12:51:04.149Z,96915.69
2022-11-21T12:53:39.115Z,96909.66
2022-11-21T12:55:42.923Z,96895.13
2022-11-21T12:58:08.395Z,96896.06
2022-11-21T13:00:17.252Z,96894.41
2022-11-21T13:02:28.101Z,96885.91
2022-11-21T13:04:34.473Z,96890.31
2022-11-21T13:06:41.611Z,96885.78
2022-11-21T13:08:45.462Z,96883.19
2022-11-21T13:11:13.262Z,96876.91
2022-11-21T13:13:20.763Z,96865.50
2022-11-21T13:15:27.732Z,96860.03
2022-11-21T13:17:41.668Z,96864.44
2022-11-21T13:19:50.966Z,96856.63
2022-11-21T13:21:55.446Z,96846.66
2022-11-21T13:23:58.601Z,96849.38
2022-11-21T13:26:01.681Z,96836.25
2022-11-21T13:28:33.400Z,96829.97
2022-11-21T13:30:36.489Z,96822.97
2022-11-21T13:32:39.808Z,96821.06
2022-11-21T13:34:42.909Z,96819.16
2022-11-21T13:36:48.117Z,96815.16
2022-11-21T13:39:33.101Z,96811.41
2022-11-21T13:42:20.782Z,96810.69
2022-11-21T13:44:31.187Z,96801.13
2022-11-21T13:46:58.897Z,96796.19
2022-11-21T13:49:06.697Z,96799.06
2022-11-21T13:51:19.688Z,96800.81
2022-11-21T13:53:39.778Z,96801.66
2022-11-21T13:55:56.436Z,96796.06
2022-11-21T13:58:08.338Z,96794.69
2022-11-21T14:00:29.356Z,96791.56
2022-11-21T14:02:55.446Z,96781.16
2022-11-21T14:05:05.370Z,96778.41
2022-11-21T14:07:23.114Z,96775.69
2022-11-21T14:09:28.492Z,96780.63
2022-11-21T14:11:37.642Z,96771.75
2022-11-21T14:13:47.505Z,96774.06
2022-11-21T14:15:55.322Z,96770.38
2022-11-21T14:17:59.278Z,96765.03
2022-11-21T14:20:09.458Z,96753.50
2022-11-21T14:22:17.549Z,96748.84
2022-11-21T14:24:20.978Z,96747.63
2022-11-21T14:26:25.515Z,96741.47
2022-11-21T14:28:30.557Z,96744.06
2022-11-21T14:30:37.521Z,96734.59
2022-11-21T14:32:41.535Z,96741.59
2022-11-21T14:34:44.662Z,96743.38
2022-11-21T14:36:47.826Z,96742.69
2022-11-21T14:39:13.924Z,96731.59
2022-11-21T14:41:32.135Z,96734.47
2022-11-21T14:43:35.409Z,96730.47
2022-11-21T14:45:50.195Z,96730.06
2022-11-21T14:47:55.051Z,96728.66
2022-11-21T14:50:06.915Z,96728.25
2022-11-21T14:52:18.875Z,96717.41
2022-11-21T14:54:24.127Z,96719.44
2022-11-21T14:56:28.382Z,96705.44
2022-11-21T14:58:31.511Z,96693.66
2022-11-21T15:02:59.827Z,96694.72
2022-11-21T15:05:04.823Z,96691.84
2022-11-21T15:07:19.595Z,96677.69
2022-11-21T15:10:26.003Z,96672.88
2022-11-21T15:11:50.506Z,96666.31
2022-11-21T15:14:15.460Z,96657.94
2022-11-21T15:16:19.318Z,96650.69
2022-11-21T15:18:27.756Z,96638.22
2022-11-21T15:20:32.015Z,96626.53
2022-11-21T15:22:37.005Z,96628.72
2022-11-21T15:24:42.620Z,96612.00
2022-11-21T15:26:47.411Z,96606.66
2022-11-21T15:28:55.949Z,96595.13
2022-11-21T15:31:18.813Z,96586.09
2022-11-21T15:33:23.344Z,96586.59
2022-11-21T15:35:36.635Z,96583.00
2022-11-21T15:37:39.702Z,96576.66
2022-11-21T15:39:45.106Z,96572.72
2022-11-21T15:41:48.233Z,96564.31
2022-11-21T15:43:53.015Z,96556.63
2022-11-21T15:46:03.150Z,96554.69
2022-11-21T15:48:07.093Z,96553.31
2022-11-21T15:50:11.509Z,96547.91
2022-11-21T15:52:14.587Z,96542.28
2022-11-21T15:54:20.065Z,96539.28
2022-11-21T15:56:23.440Z,96532.81
2022-11-21T15:58:26.535Z,96530.69
2022-11-21T16:00:29.583Z,96524.94
2022-11-21T16:02:32.813Z,96516.47
2022-11-21T16:04:35.977Z,96509.88
2022-11-21T16:06:40.430Z,96497.28
2022-11-21T16:08:43.648Z,96486.47
2022-11-21T16:10:46.766Z,96480.81
2022-11-21T16:12:50.019Z,96486.69
2022-11-21T16:14:53.047Z,96484.59
2022-11-21T16:16:56.056Z,96477.06
2022-11-21T16:18:59.639Z,96479.06
2022-11-21T16:21:07.433Z,96464.84
2022-11-21T16:23:12.521Z,96478.06
2022-11-21T16:25:15.912Z,96475.97
2022-11-21T16:27:19.325Z,96477.41
2022-11-21T16:29:22.536Z,96464.13
2022-11-21T16:31:27.278Z,96466.16
2022-11-21T16:33:30.838Z,96452.84
2022-11-21T16:35:33.819Z,96445.69
2022-11-21T16:37:36.969Z,96440.75
2022-11-21T16:39:41.518Z,96435.03
2022-11-21T16:41:45.967Z,96424.59
2022-11-21T16:43:50.601Z,96418.25
2022-11-21T16:45:53.735Z,96416.88
2022-11-21T16:47:56.781Z,96411.94
2022-11-21T16:49:59.905Z,96409.47
2022-11-21T16:52:03.177Z,96410.41
2022-11-21T16:54:09.196Z,96392.63
2022-11-21T16:56:15.293Z,96401.34
2022-11-21T16:58:18.315Z,96399.84
2022-11-21T17:00:22.509Z,96393.56
2022-11-21T17:02:25.585Z,96384.06
2022-11-21T17:04:28.597Z,96367.34
2022-11-21T17:06:32.121Z,96363.09
2022-11-21T17:08:35.207Z,96360.38
2022-11-21T17:10:38.558Z,96361.22
2022-11-21T17:12:44.744Z,96371.59
2022-11-21T17:14:48.464Z,96389.59
2022-11-21T17:16:51.494Z,96387.44
2022-11-21T17:18:54.707Z,96389.78
2022-11-21T17:20:57.744Z,96392.38
2022-11-21T17:23:00.918Z,96388.88
2022-11-21T17:25:04.378Z,96385.19
2022-11-21T17:27:09.812Z,96385.78
2022-11-21T17:29:14.302Z,96384.69
2022-11-21T17:31:17.606Z,96380.34
2022-11-21T17:33:21.879Z,96380.34
2022-11-21T17:35:25.000Z,96366.66
2022-11-21T17:37:28.110Z,96361.75
2022-11-21T17:39:31.793Z,96354.94
2022-11-21T17:41:35.606Z,96350.56
2022-11-21T17:43:39.177Z,96363.41
2022-11-21T17:45:43.691Z,96352.09
2022-11-21T17:47:47.170Z,96348.28
2022-11-21T17:49:50.330Z,96362.75
2022-11-21T17:51:56.602Z,96348.16
2022-11-21T17:54:00.928Z,96329.19
2022-11-21T17:56:05.505Z,96333.44
2022-11-21T17:58:10.509Z,96332.34
2022-11-21T18:00:14.876Z,96327.31
2022-11-21T18:02:21.022Z,96328.81
2022-11-21T18:04:24.194Z,96334.69
2022-11-21T18:06:28.324Z,96333.88
2022-11-21T18:08:32.194Z,96326.66
2022-11-21T18:10:43.271Z,96315.25
2022-11-21T18:12:46.980Z,96300.25
2022-11-21T18:14:50.007Z,96297.53
2022-11-21T18:16:55.090Z,96294.25
2022-11-21T18:18:59.819Z,96307.34
2022-11-21T18:21:04.151Z,96325.59
2022-11-21T18:23:08.405Z,96327.59
2022-11-21T18:25:11.463Z,96321.88
2022-11-21T18:27:14.522Z,96328.69
2022-11-21T18:29:38.216Z,96324.88
2022-11-21T18:31:42.806Z,96316.19
2022-11-21T18:33:47.067Z,96310.81
2022-11-21T18:35:51.596Z,96300.03
2022-11-21T18:37:55.808Z,96294.38
2022-11-21T18:39:58.986Z,96279.78
2022-11-21T18:42:01.979Z,96282.38
2022-11-21T18:44:06.602Z,96281.66
2022-11-21T18:46:11.539Z,96293.44
2022-11-21T18:48:15.038Z,96293.19
2022-11-21T18:50:18.292Z,96295.25
2022-11-21T18:52:22.917Z,96276.16
2022-11-21T18:54:26.067Z,96274.84
2022-11-21T18:56:30.182Z,96265.16
2022-11-21T18:58:34.328Z,96263.16
2022-11-21T19:00:37.660Z,96272.03
2022-11-21T19:02:41.018Z,96270.69
2022-11-21T19:04:44.155Z,96265.66
2022-11-21T19:06:47.406Z,96272.88
2022-11-21T19:08:53.499Z,96276.53
2022-11-21T19:10:56.719Z,96272.53
2022-11-21T19:12:59.883Z,96257.00
2022-11-21T19:15:02.922Z,96258.78
2022-11-21T19:17:06.188Z,96262.19
2022-11-21T19:21:36.716Z,96262.03
2022-11-21T19:23:41.796Z,96266.16
2022-11-21T19:25:46.325Z,96271.91
2022-11-21T19:27:49.346Z,96272.47
2022-11-21T19:29:55.196Z,96263.59
2022-11-21T19:31:58.287Z,96266.78
2022-11-21T19:34:01.403Z,96264.19
2022-11-21T19:36:05.980Z,96263.06
2022-11-21T19:38:09.039Z,96265.34
2022-11-21T19:40:13.087Z,96258.22
2022-11-21T19:42:17.622Z,96255.31
2022-11-21T19:44:20.730Z,96256.00
2022-11-21T19:46:25.241Z,96261.31
2022-11-21T19:48:28.352Z,96246.72
2022-11-21T19:50:31.806Z,96246.97
2022-11-21T19:52:34.960Z,96245.34
2022-11-21T19:54:38.162Z,96234.28
2022-11-21T19:56:41.472Z,96227.34
2022-11-21T19:58:46.853Z,96228.97
2022-11-21T20:00:49.993Z,96223.22
2022-11-21T20:02:53.380Z,96212.88
2022-11-21T20:04:56.458Z,96220.63
2022-11-21T20:07:02.312Z,96223.22
2022-11-21T20:09:11.010Z,96221.31
2022-11-21T20:11:15.674Z,96219.44
2022-11-21T20:13:18.872Z,96220.00
2022-11-21T20:15:23.633Z,96212.63
2022-11-21T20:17:26.845Z,96217.44
2022-11-21T20:19:30.236Z,96215.53
2022-11-21T20:21:33.736Z,96210.78
2022-11-21T20:23:37.064Z,96221.84
2022-11-21T20:25:40.295Z,96223.50
2022-11-21T20:27:43.384Z,96214.88
2022-11-21T20:29:46.588Z,96217.59
2022-11-21T20:31:51.089Z,96218.56
2022-11-21T20:33:55.385Z,96217.59
2022-11-21T20:36:04.044Z,96212.28
2022-11-21T20:38:07.221Z,96208.63
2022-11-21T20:40:11.392Z,96216.13
2022-11-21T20:42:14.602Z,96216.69
2022-11-21T20:45:36.037Z,96218.19
2022-11-21T20:46:42.838Z,96221.47
2022-11-21T20:48:47.502Z,96210.16
2022-11-21T20:55:40.187Z,96210.97
2022-11-21T20:57:43.562Z,96208.38
2022-11-21T20:59:46.640Z,96215.34
2022-11-21T21:01:49.873Z,96215.22
2022-11-21T21:03:56.329Z,96210.84
2022-11-21T21:06:06.599Z,96222.88
2022-11-21T21:08:10.328Z,96215.91
2022-11-21T21:10:13.680Z,96217.81
2022-11-21T21:12:16.895Z,96225.72
2022-11-21T21:14:20.040Z,96218.34
2022-11-21T21:16:25.683Z,96217.06
2022-11-21T21:18:28.872Z,96218.19
2022-11-21T21:20:39.970Z,96217.34
2022-11-21T21:22:54.834Z,96217.72
2022-11-21T21:24:57.959Z,96212.81
2022-11-21T21:27:01.140Z,96211.19
2022-11-21T21:29:05.172Z,96219.63
2022-11-21T21:31:09.437Z,96217.19
2022-11-21T21:33:16.478Z,96218.13
2022-11-21T21:35:19.649Z,96216.50
2022-11-21T21:37:24.264Z,96225.06
2022-11-21T21:39:27.617Z,96228.34
2022-11-21T21:41:33.001Z,96230.13
2022-11-21T21:43:36.192Z,96228.34
2022-11-21T21:45:39.334Z,96213.66
2022-11-21T21:47:42.934Z,96207.19
2022-11-21T21:49:46.006Z,96204.06
2022-11-21T21:51:49.113Z,96202.53
2022-11-21T21:53:54.552Z,96199.13
2022-11-21T21:55:59.658Z,96194.06
2022-11-21T21:58:02.802Z,96172.09
2022-11-21T22:00:07.057Z,96158.84
2022-11-21T22:02:14.586Z,96178.44
2022-11-21T22:04:17.918Z,96183.31
2022-11-21T22:06:20.944Z,96172.44
2022-11-21T22:08:23.943Z,96168.91
2022-11-21T22:10:28.394Z,96179.81
2022-11-21T22:12:31.384Z,96195.25
2022-11-21T22:14:34.868Z,96181.47
2022-11-21T22:16:37.997Z,96168.19
2022-11-21T22:18:41.501Z,96184.59
2022-11-21T22:20:44.556Z,96177.38
2022-11-21T22:22:47.579Z,96141.88
2022-11-21T22:24:50.666Z,96166.75
2022-11-21T22:26:55.104Z,96180.81
2022-11-21T22:28:58.331Z,96178.66
2022-11-21T22:31:01.379Z,96167.47
2022-11-21T22:33:05.697Z,96188.31
2022-11-21T22:35:09.124Z,96169.94
2022-11-21T22:37:12.316Z,96180.44
2022-11-21T22:39:15.727Z,96181.09
2022-11-21T22:41:20.340Z,96180.31
2022-11-21T22:43:24.721Z,96180.97
2022-11-21T22:45:27.769Z,96186.59
2022-11-21T22:47:30.822Z,96180.59
2022-11-21T22:49:34.450Z,96172.03
2022-11-21T22:51:37.474Z,96184.97
2022-11-21T22:53:40.623Z,96191.50
2022-11-21T22:55:43.652Z,96190.31
2022-11-21T22:57:46.706Z,96194.31
2022-11-21T22:59:51.140Z,96194.97
2022-11-21T23:01:54.115Z,96206.47
2022-11-21T23:03:57.275Z,96200.88
2022-11-21T23:06:01.806Z,96204.19
2022-11-21T23:08:05.030Z,96206.50
2022-11-21T23:10:09.452Z,96210.72
2022-11-21T23:12:12.507Z,96212.38
2022-11-21T23:14:15.568Z,96207.19
2022-11-21T23:16:20.092Z,96204.47
2022-11-21T23:18:23.134Z,96204.47
2022-11-21T23:20:26.236Z,96200.81
2022-11-21T23:22:29.234Z,96209.13
2022-11-21T23:24:32.371Z,96203.97
2022-11-21T23:26:35.399Z,96203.97
2022-11-21T23:28:38.651Z,96202.19
2022-11-21T23:30:41.749Z,96200.28
2022-11-21T23:32:46.352Z,96204.50
2022-11-21T23:34:49.470Z,96202.63
2022-11-21T23:36:52.549Z,96192.81
2022-11-21T23:38:55.948Z,96194.44
2022-11-21T23:40:59.568Z,96191.88
2022-11-21T23:43:02.658Z,96186.53
2022-11-21T23:45:06.813Z,96175.78
2022-11-21T23:47:09.904Z,96165.16
2022-11-21T23:49:14.300Z,96165.81
2022-11-21T23:51:17.429Z,96167.03
2022-11-21T23:53:20.922Z,96167.63
2022-11-21T23:55:24.089Z,96158.72
2022-11-21T23:57:27.083Z,96161.91
2022-11-21T23:59:30.420Z,96153.84
